sensor_id;sensor_type;location;lat;lon;timestamp;temperature;humidity
34249;DHT22;20508;50.834;3.160;2022-07-29T00:01:44;24.90;42.10
34249;DHT22;20508;50.834;3.160;2022-07-29T00:04:31;24.90;42.20
34249;DHT22;20508;50.834;3.160;2022-07-29T00:07:24;24.90;42.10
34249;DHT22;20508;50.834;3.160;2022-07-29T00:10:10;24.90;42.10
34249;DHT22;20508;50.834;3.160;2022-07-29T00:12:44;25.00;42.00
34249;DHT22;20508;50.834;3.160;2022-07-29T00:15:33;25.00;42.10
34249;DHT22;20508;50.834;3.160;2022-07-29T00:18:35;25.10;41.90
34249;DHT22;20508;50.834;3.160;2022-07-29T00:21:18;25.10;42.00
34249;DHT22;20508;50.834;3.160;2022-07-29T00:23:56;25.10;41.90
34249;DHT22;20508;50.834;3.160;2022-07-29T00:26:30;25.10;41.90
34249;DHT22;20508;50.834;3.160;2022-07-29T00:28:59;25.20;41.80
34249;DHT22;20508;50.834;3.160;2022-07-29T00:31:28;25.20;41.70
34249;DHT22;20508;50.834;3.160;2022-07-29T00:34:12;25.30;41.80
34249;DHT22;20508;50.834;3.160;2022-07-29T00:37:17;25.30;41.80
34249;DHT22;20508;50.834;3.160;2022-07-29T00:39:56;25.20;41.80
34249;DHT22;20508;50.834;3.160;2022-07-29T00:42:51;25.20;41.70
34249;DHT22;20508;50.834;3.160;2022-07-29T00:45:27;25.30;41.60
34249;DHT22;20508;50.834;3.160;2022-07-29T00:48:05;25.20;41.80
34249;DHT22;20508;50.834;3.160;2022-07-29T00:50:49;25.20;42.00
34249;DHT22;20508;50.834;3.160;2022-07-29T00:53:33;25.20;42.00
34249;DHT22;20508;50.834;3.160;2022-07-29T00:59:13;25.10;42.30
34249;DHT22;20508;50.834;3.160;2022-07-29T01:01:57;25.10;42.30
34249;DHT22;20508;50.834;3.160;2022-07-29T01:05:04;25.10;42.30
34249;DHT22;20508;50.834;3.160;2022-07-29T01:07:49;25.10;42.20
34249;DHT22;20508;50.834;3.160;2022-07-29T01:10:22;25.10;42.40
34249;DHT22;20508;50.834;3.160;2022-07-29T01:13:01;25.10;42.40
34249;DHT22;20508;50.834;3.160;2022-07-29T01:18:49;25.10;42.40
34249;DHT22;20508;50.834;3.160;2022-07-29T01:21:47;25.10;42.50
34249;DHT22;20508;50.834;3.160;2022-07-29T01:30:53;25.00;42.50
34249;DHT22;20508;50.834;3.160;2022-07-29T01:33:50;25.00;42.70
34249;DHT22;20508;50.834;3.160;2022-07-29T01:39:40;24.90;43.00
34249;DHT22;20508;50.834;3.160;2022-07-29T01:47:43;25.00;43.00
34249;DHT22;20508;50.834;3.160;2022-07-29T01:50:34;25.00;43.00
34249;DHT22;20508;50.834;3.160;2022-07-29T01:53:16;25.00;43.60
34249;DHT22;20508;50.834;3.160;2022-07-29T01:56:09;25.00;42.90
34249;DHT22;20508;50.834;3.160;2022-07-29T01:58:49;25.00;42.70
34249;DHT22;20508;50.834;3.160;2022-07-29T02:01:18;25.00;42.80
34249;DHT22;20508;50.834;3.160;2022-07-29T02:04:03;24.90;42.80
34249;DHT22;20508;50.834;3.160;2022-07-29T02:07:03;25.00;42.80
34249;DHT22;20508;50.834;3.160;2022-07-29T02:09:41;24.90;42.70
34249;DHT22;20508;50.834;3.160;2022-07-29T02:12:26;24.80;42.90
34249;DHT22;20508;50.834;3.160;2022-07-29T02:15:12;24.90;43.00
34249;DHT22;20508;50.834;3.160;2022-07-29T02:18:02;24.80;43.10
34249;DHT22;20508;50.834;3.160;2022-07-29T02:20:31;24.80;43.10
34249;DHT22;20508;50.834;3.160;2022-07-29T02:23:06;24.80;43.30
34249;DHT22;20508;50.834;3.160;2022-07-29T02:25:43;24.80;43.20
34249;DHT22;20508;50.834;3.160;2022-07-29T02:28:29;24.80;43.50
34249;DHT22;20508;50.834;3.160;2022-07-29T02:31:01;24.80;43.10
34249;DHT22;20508;50.834;3.160;2022-07-29T02:34:04;24.90;43.10
34249;DHT22;20508;50.834;3.160;2022-07-29T02:36:49;24.90;42.90
34249;DHT22;20508;50.834;3.160;2022-07-29T02:39:19;24.90;43.00
34249;DHT22;20508;50.834;3.160;2022-07-29T02:45:17;24.90;42.80
34249;DHT22;20508;50.834;3.160;2022-07-29T02:47:52;24.90;42.70
34249;DHT22;20508;50.834;3.160;2022-07-29T02:50:47;24.90;42.80
34249;DHT22;20508;50.834;3.160;2022-07-29T02:53:44;24.90;42.70
34249;DHT22;20508;50.834;3.160;2022-07-29T02:59:36;24.90;42.70
34249;DHT22;20508;50.834;3.160;2022-07-29T03:02:19;24.90;42.60
34249;DHT22;20508;50.834;3.160;2022-07-29T03:05:02;24.90;42.60
34249;DHT22;20508;50.834;3.160;2022-07-29T03:07:58;24.90;42.60
34249;DHT22;20508;50.834;3.160;2022-07-29T03:10:37;25.00;42.50
34249;DHT22;20508;50.834;3.160;2022-07-29T03:16:13;24.90;42.60
34249;DHT22;20508;50.834;3.160;2022-07-29T03:21:42;24.90;42.40
34249;DHT22;20508;50.834;3.160;2022-07-29T03:24:30;24.90;42.40
34249;DHT22;20508;50.834;3.160;2022-07-29T03:27:13;24.90;42.20
34249;DHT22;20508;50.834;3.160;2022-07-29T03:30:01;24.90;42.40
34249;DHT22;20508;50.834;3.160;2022-07-29T03:32:57;24.80;42.40
34249;DHT22;20508;50.834;3.160;2022-07-29T03:38:51;24.70;42.40
34249;DHT22;20508;50.834;3.160;2022-07-29T03:41:49;24.80;42.50
34249;DHT22;20508;50.834;3.160;2022-07-29T03:44:35;24.70;42.60
34249;DHT22;20508;50.834;3.160;2022-07-29T03:47:19;24.70;42.80
34249;DHT22;20508;50.834;3.160;2022-07-29T03:50:09;24.70;42.80
34249;DHT22;20508;50.834;3.160;2022-07-29T03:52:47;24.60;42.80
34249;DHT22;20508;50.834;3.160;2022-07-29T03:55:32;24.70;43.40
34249;DHT22;20508;50.834;3.160;2022-07-29T03:58:13;24.70;42.70
34249;DHT22;20508;50.834;3.160;2022-07-29T04:01:12;24.70;42.80
34249;DHT22;20508;50.834;3.160;2022-07-29T04:03:41;24.70;42.50
34249;DHT22;20508;50.834;3.160;2022-07-29T04:06:41;24.70;42.60
34249;DHT22;20508;50.834;3.160;2022-07-29T04:09:28;24.70;42.80
34249;DHT22;20508;50.834;3.160;2022-07-29T04:15:18;24.60;42.50
34249;DHT22;20508;50.834;3.160;2022-07-29T04:17:58;24.60;42.60
34249;DHT22;20508;50.834;3.160;2022-07-29T04:20:47;24.60;42.60
34249;DHT22;20508;50.834;3.160;2022-07-29T04:23:32;24.60;42.60
34249;DHT22;20508;50.834;3.160;2022-07-29T04:26:18;24.60;42.80
34249;DHT22;20508;50.834;3.160;2022-07-29T04:29:06;24.50;42.80
34249;DHT22;20508;50.834;3.160;2022-07-29T04:31:40;24.50;43.00
34249;DHT22;20508;50.834;3.160;2022-07-29T04:34:26;24.50;43.70
34249;DHT22;20508;50.834;3.160;2022-07-29T04:37:20;24.50;43.00
34249;DHT22;20508;50.834;3.160;2022-07-29T04:40:28;24.60;43.10
34249;DHT22;20508;50.834;3.160;2022-07-29T04:43:12;24.60;42.90
34249;DHT22;20508;50.834;3.160;2022-07-29T04:45:58;24.60;43.00
34249;DHT22;20508;50.834;3.160;2022-07-29T04:48:27;24.50;42.90
34249;DHT22;20508;50.834;3.160;2022-07-29T04:53:43;24.60;42.80
34249;DHT22;20508;50.834;3.160;2022-07-29T04:56:28;24.60;42.90
34249;DHT22;20508;50.834;3.160;2022-07-29T04:59:17;24.50;42.90
34249;DHT22;20508;50.834;3.160;2022-07-29T05:01:56;24.50;43.00
34249;DHT22;20508;50.834;3.160;2022-07-29T05:05:02;24.50;43.10
34249;DHT22;20508;50.834;3.160;2022-07-29T05:07:48;24.60;43.20
34249;DHT22;20508;50.834;3.160;2022-07-29T05:10:30;24.70;43.20
34249;DHT22;20508;50.834;3.160;2022-07-29T05:16:10;24.60;43.10
34249;DHT22;20508;50.834;3.160;2022-07-29T05:18:51;24.70;43.20
34249;DHT22;20508;50.834;3.160;2022-07-29T05:21:31;24.70;43.20
34249;DHT22;20508;50.834;3.160;2022-07-29T05:24:26;24.70;43.10
34249;DHT22;20508;50.834;3.160;2022-07-29T05:30:25;24.90;42.90
34249;DHT22;20508;50.834;3.160;2022-07-29T05:33:03;24.80;43.10
34249;DHT22;20508;50.834;3.160;2022-07-29T05:35:54;24.80;43.10
34249;DHT22;20508;50.834;3.160;2022-07-29T05:38:47;24.80;43.10
34249;DHT22;20508;50.834;3.160;2022-07-29T05:41:36;24.80;43.20
34249;DHT22;20508;50.834;3.160;2022-07-29T05:44:30;24.80;43.20
34249;DHT22;20508;50.834;3.160;2022-07-29T05:47:53;24.70;43.40
34249;DHT22;20508;50.834;3.160;2022-07-29T05:50:48;24.70;43.40
34249;DHT22;20508;50.834;3.160;2022-07-29T05:53:36;24.70;43.70
34249;DHT22;20508;50.834;3.160;2022-07-29T05:56:25;24.70;43.90
34249;DHT22;20508;50.834;3.160;2022-07-29T05:59:08;24.60;43.90
34249;DHT22;20508;50.834;3.160;2022-07-29T06:01:49;24.60;44.00
34249;DHT22;20508;50.834;3.160;2022-07-29T06:04:56;24.60;44.00
34249;DHT22;20508;50.834;3.160;2022-07-29T06:10:39;24.60;44.10
34249;DHT22;20508;50.834;3.160;2022-07-29T06:13:16;24.70;44.20
34249;DHT22;20508;50.834;3.160;2022-07-29T06:16:07;24.70;44.20
34249;DHT22;20508;50.834;3.160;2022-07-29T06:18:47;24.70;44.30
34249;DHT22;20508;50.834;3.160;2022-07-29T06:21:42;24.70;44.30
34249;DHT22;20508;50.834;3.160;2022-07-29T06:24:23;24.70;44.30
34249;DHT22;20508;50.834;3.160;2022-07-29T06:27:02;24.70;44.60
34249;DHT22;20508;50.834;3.160;2022-07-29T06:29:28;24.60;44.60
34249;DHT22;20508;50.834;3.160;2022-07-29T06:32:14;24.60;44.70
34249;DHT22;20508;50.834;3.160;2022-07-29T06:34:57;24.60;44.70
34249;DHT22;20508;50.834;3.160;2022-07-29T06:37:28;24.60;44.80
34249;DHT22;20508;50.834;3.160;2022-07-29T06:40:30;24.70;44.90
34249;DHT22;20508;50.834;3.160;2022-07-29T06:43:27;24.80;44.80
34249;DHT22;20508;50.834;3.160;2022-07-29T06:46:08;24.70;44.90
34249;DHT22;20508;50.834;3.160;2022-07-29T06:48:40;24.70;44.80
34249;DHT22;20508;50.834;3.160;2022-07-29T06:51:20;24.70;44.90
34249;DHT22;20508;50.834;3.160;2022-07-29T06:53:46;24.80;44.80
34249;DHT22;20508;50.834;3.160;2022-07-29T06:56:18;24.80;44.80
34249;DHT22;20508;50.834;3.160;2022-07-29T06:58:46;24.80;45.00
34249;DHT22;20508;50.834;3.160;2022-07-29T07:01:20;24.90;44.90
34249;DHT22;20508;50.834;3.160;2022-07-29T07:03:57;25.00;44.80
34249;DHT22;20508;50.834;3.160;2022-07-29T07:06:26;25.00;44.80
34249;DHT22;20508;50.834;3.160;2022-07-29T07:09:07;25.00;44.70
34249;DHT22;20508;50.834;3.160;2022-07-29T07:11:37;25.00;44.70
34249;DHT22;20508;50.834;3.160;2022-07-29T07:14:16;25.00;44.70
34249;DHT22;20508;50.834;3.160;2022-07-29T07:16:53;25.00;44.80
34249;DHT22;20508;50.834;3.160;2022-07-29T07:19:40;25.00;44.80
34249;DHT22;20508;50.834;3.160;2022-07-29T07:22:49;25.10;44.80
34249;DHT22;20508;50.834;3.160;2022-07-29T07:25:15;25.10;45.50
34249;DHT22;20508;50.834;3.160;2022-07-29T07:27:51;25.10;44.80
34249;DHT22;20508;50.834;3.160;2022-07-29T07:30:26;25.20;44.60
34249;DHT22;20508;50.834;3.160;2022-07-29T07:33:05;25.20;44.50
34249;DHT22;20508;50.834;3.160;2022-07-29T07:35:44;25.30;44.30
34249;DHT22;20508;50.834;3.160;2022-07-29T07:38:39;25.40;44.30
34249;DHT22;20508;50.834;3.160;2022-07-29T07:41:18;25.50;44.20
34249;DHT22;20508;50.834;3.160;2022-07-29T07:43:56;25.50;44.90
34249;DHT22;20508;50.834;3.160;2022-07-29T07:46:39;25.50;44.20
34249;DHT22;20508;50.834;3.160;2022-07-29T07:49:20;25.50;44.20
34249;DHT22;20508;50.834;3.160;2022-07-29T07:51:56;25.60;44.10
34249;DHT22;20508;50.834;3.160;2022-07-29T07:55:00;25.60;44.20
34249;DHT22;20508;50.834;3.160;2022-07-29T08:00:40;25.60;44.10
34249;DHT22;20508;50.834;3.160;2022-07-29T08:03:35;25.60;44.20
34249;DHT22;20508;50.834;3.160;2022-07-29T08:06:12;25.70;44.10
34249;DHT22;20508;50.834;3.160;2022-07-29T08:08:51;25.60;44.20
34249;DHT22;20508;50.834;3.160;2022-07-29T08:11:35;25.70;44.10
34249;DHT22;20508;50.834;3.160;2022-07-29T08:14:10;25.70;44.00
34249;DHT22;20508;50.834;3.160;2022-07-29T08:16:49;25.80;44.10
34249;DHT22;20508;50.834;3.160;2022-07-29T08:19:35;25.80;44.20
34249;DHT22;20508;50.834;3.160;2022-07-29T08:22:11;25.80;44.00
34249;DHT22;20508;50.834;3.160;2022-07-29T08:24:52;25.70;44.10
34249;DHT22;20508;50.834;3.160;2022-07-29T08:27:28;25.70;44.30
34249;DHT22;20508;50.834;3.160;2022-07-29T08:30:13;25.70;44.20
34249;DHT22;20508;50.834;3.160;2022-07-29T08:32:48;25.70;44.30
34249;DHT22;20508;50.834;3.160;2022-07-29T08:35:41;25.70;44.30
34249;DHT22;20508;50.834;3.160;2022-07-29T08:38:20;25.80;44.40
34249;DHT22;20508;50.834;3.160;2022-07-29T08:40:51;25.70;44.80
34249;DHT22;20508;50.834;3.160;2022-07-29T08:43:23;25.70;45.20
34249;DHT22;20508;50.834;3.160;2022-07-29T08:46:03;25.70;45.80
34249;DHT22;20508;50.834;3.160;2022-07-29T08:48:47;25.60;45.80
34249;DHT22;20508;50.834;3.160;2022-07-29T08:51:28;25.60;45.70
34249;DHT22;20508;50.834;3.160;2022-07-29T08:54:08;25.60;45.80
34249;DHT22;20508;50.834;3.160;2022-07-29T08:59:42;25.50;46.00
34249;DHT22;20508;50.834;3.160;2022-07-29T09:05:49;25.50;45.70
34249;DHT22;20508;50.834;3.160;2022-07-29T09:08:29;25.50;45.50
34249;DHT22;20508;50.834;3.160;2022-07-29T09:10:56;25.50;46.00
34249;DHT22;20508;50.834;3.160;2022-07-29T09:13:51;25.50;45.50
34249;DHT22;20508;50.834;3.160;2022-07-29T09:16:53;25.50;45.50
34249;DHT22;20508;50.834;3.160;2022-07-29T09:19:30;25.50;45.30
34249;DHT22;20508;50.834;3.160;2022-07-29T09:22:29;25.50;44.60
34249;DHT22;20508;50.834;3.160;2022-07-29T09:25:10;25.50;45.10
34249;DHT22;20508;50.834;3.160;2022-07-29T09:27:52;25.40;45.60
34249;DHT22;20508;50.834;3.160;2022-07-29T09:30:21;25.50;45.70
34249;DHT22;20508;50.834;3.160;2022-07-29T09:33:08;25.40;45.60
34249;DHT22;20508;50.834;3.160;2022-07-29T09:35:35;25.40;45.40
34249;DHT22;20508;50.834;3.160;2022-07-29T09:38:12;25.40;45.50
34249;DHT22;20508;50.834;3.160;2022-07-29T09:40:44;25.40;45.40
34249;DHT22;20508;50.834;3.160;2022-07-29T09:43:39;25.40;45.20
34249;DHT22;20508;50.834;3.160;2022-07-29T09:46:14;25.50;45.30
34249;DHT22;20508;50.834;3.160;2022-07-29T09:48:40;25.50;44.90
34249;DHT22;20508;50.834;3.160;2022-07-29T09:51:26;25.50;44.70
34249;DHT22;20508;50.834;3.160;2022-07-29T09:54:27;25.60;45.20
34249;DHT22;20508;50.834;3.160;2022-07-29T09:57:21;25.60;45.70
34249;DHT22;20508;50.834;3.160;2022-07-29T10:00:03;25.50;46.10
34249;DHT22;20508;50.834;3.160;2022-07-29T10:02:45;25.50;46.00
34249;DHT22;20508;50.834;3.160;2022-07-29T10:06:09;25.40;45.80
34249;DHT22;20508;50.834;3.160;2022-07-29T10:08:47;25.40;45.50
34249;DHT22;20508;50.834;3.160;2022-07-29T10:11:43;25.30;45.40
34249;DHT22;20508;50.834;3.160;2022-07-29T10:14:47;25.50;45.00
34249;DHT22;20508;50.834;3.160;2022-07-29T10:17:31;25.50;44.70
34249;DHT22;20508;50.834;3.160;2022-07-29T10:20:17;25.60;43.60
34249;DHT22;20508;50.834;3.160;2022-07-29T10:22:49;25.70;43.50
34249;DHT22;20508;50.834;3.160;2022-07-29T10:25:26;25.80;43.10
34249;DHT22;20508;50.834;3.160;2022-07-29T10:28:28;25.90;43.00
34249;DHT22;20508;50.834;3.160;2022-07-29T10:31:34;26.00;42.70
34249;DHT22;20508;50.834;3.160;2022-07-29T10:43:30;25.90;43.00
34249;DHT22;20508;50.834;3.160;2022-07-29T10:46:10;25.90;42.90
34249;DHT22;20508;50.834;3.160;2022-07-29T10:49:07;26.00;42.60
34249;DHT22;20508;50.834;3.160;2022-07-29T10:57:31;26.10;42.50
34249;DHT22;20508;50.834;3.160;2022-07-29T11:02:41;26.00;42.80
34249;DHT22;20508;50.834;3.160;2022-07-29T11:05:23;26.10;43.10
34249;DHT22;20508;50.834;3.160;2022-07-29T11:16:57;26.10;41.90
34249;DHT22;20508;50.834;3.160;2022-07-29T11:21:50;26.10;41.80
34249;DHT22;20508;50.834;3.160;2022-07-29T11:24:37;26.10;41.80
34249;DHT22;20508;50.834;3.160;2022-07-29T11:27:09;26.10;42.10
34249;DHT22;20508;50.834;3.160;2022-07-29T11:30:14;26.00;42.00
34249;DHT22;20508;50.834;3.160;2022-07-29T11:32:51;26.00;41.90
34249;DHT22;20508;50.834;3.160;2022-07-29T11:35:47;26.00;41.90
34249;DHT22;20508;50.834;3.160;2022-07-29T11:38:31;26.00;41.80
34249;DHT22;20508;50.834;3.160;2022-07-29T11:41:19;26.00;41.80
34249;DHT22;20508;50.834;3.160;2022-07-29T11:44:09;26.10;41.70
34249;DHT22;20508;50.834;3.160;2022-07-29T11:46:50;26.10;41.80
34249;DHT22;20508;50.834;3.160;2022-07-29T11:49:39;26.10;41.90
34249;DHT22;20508;50.834;3.160;2022-07-29T11:52:19;26.10;41.90
34249;DHT22;20508;50.834;3.160;2022-07-29T11:54:57;26.10;41.70
34249;DHT22;20508;50.834;3.160;2022-07-29T11:57:29;26.20;42.20
34249;DHT22;20508;50.834;3.160;2022-07-29T12:00:08;26.20;41.90
34249;DHT22;20508;50.834;3.160;2022-07-29T12:02:47;26.10;41.70
34249;DHT22;20508;50.834;3.160;2022-07-29T12:05:31;26.20;41.90
34249;DHT22;20508;50.834;3.160;2022-07-29T12:08:10;26.20;41.80
34249;DHT22;20508;50.834;3.160;2022-07-29T12:10:44;26.10;42.10
34249;DHT22;20508;50.834;3.160;2022-07-29T12:13:15;26.10;42.30
34249;DHT22;20508;50.834;3.160;2022-07-29T12:15:53;26.10;42.30
34249;DHT22;20508;50.834;3.160;2022-07-29T12:18:24;26.00;42.90
34249;DHT22;20508;50.834;3.160;2022-07-29T12:21:06;26.10;42.50
34249;DHT22;20508;50.834;3.160;2022-07-29T12:23:54;26.00;42.40
34249;DHT22;20508;50.834;3.160;2022-07-29T12:26:36;26.10;42.40
34249;DHT22;20508;50.834;3.160;2022-07-29T12:29:22;26.10;42.80
34249;DHT22;20508;50.834;3.160;2022-07-29T12:32:05;26.10;42.50
34249;DHT22;20508;50.834;3.160;2022-07-29T12:34:31;26.10;42.70
34249;DHT22;20508;50.834;3.160;2022-07-29T12:37:20;26.20;42.80
34249;DHT22;20508;50.834;3.160;2022-07-29T12:40:05;26.20;42.90
34249;DHT22;20508;50.834;3.160;2022-07-29T12:42:32;26.20;42.90
34249;DHT22;20508;50.834;3.160;2022-07-29T12:45:11;26.20;43.00
34249;DHT22;20508;50.834;3.160;2022-07-29T12:47:51;26.20;42.90
34249;DHT22;20508;50.834;3.160;2022-07-29T12:50:51;26.30;43.20
34249;DHT22;20508;50.834;3.160;2022-07-29T12:53:24;26.30;43.20
34249;DHT22;20508;50.834;3.160;2022-07-29T12:55:56;26.20;43.20
34249;DHT22;20508;50.834;3.160;2022-07-29T12:58:42;26.30;42.90
34249;DHT22;20508;50.834;3.160;2022-07-29T13:01:21;26.20;43.10
34249;DHT22;20508;50.834;3.160;2022-07-29T13:04:07;26.20;43.50
34249;DHT22;20508;50.834;3.160;2022-07-29T13:06:46;26.20;43.40
34249;DHT22;20508;50.834;3.160;2022-07-29T13:09:22;26.10;43.60
34249;DHT22;20508;50.834;3.160;2022-07-29T13:12:09;26.00;43.50
34249;DHT22;20508;50.834;3.160;2022-07-29T13:14:39;26.10;43.30
34249;DHT22;20508;50.834;3.160;2022-07-29T13:17:20;26.10;43.30
34249;DHT22;20508;50.834;3.160;2022-07-29T13:20:12;26.10;42.40
34249;DHT22;20508;50.834;3.160;2022-07-29T13:22:42;26.10;42.40
34249;DHT22;20508;50.834;3.160;2022-07-29T13:25:30;26.20;42.70
34249;DHT22;20508;50.834;3.160;2022-07-29T13:28:16;26.20;42.80
34249;DHT22;20508;50.834;3.160;2022-07-29T13:30:54;26.20;43.20
34249;DHT22;20508;50.834;3.160;2022-07-29T13:33:36;26.20;43.10
34249;DHT22;20508;50.834;3.160;2022-07-29T13:36:13;26.20;43.20
34249;DHT22;20508;50.834;3.160;2022-07-29T13:38:45;26.20;43.50
34249;DHT22;20508;50.834;3.160;2022-07-29T13:41:21;26.20;43.50
34249;DHT22;20508;50.834;3.160;2022-07-29T13:46:58;26.10;43.40
34249;DHT22;20508;50.834;3.160;2022-07-29T13:49:51;26.10;43.20
34249;DHT22;20508;50.834;3.160;2022-07-29T13:52:28;26.00;43.40
34249;DHT22;20508;50.834;3.160;2022-07-29T13:54:58;26.00;43.20
34249;DHT22;20508;50.834;3.160;2022-07-29T13:57:41;26.10;43.40
34249;DHT22;20508;50.834;3.160;2022-07-29T14:03:13;26.10;43.40
34249;DHT22;20508;50.834;3.160;2022-07-29T14:05:52;26.10;43.40
34249;DHT22;20508;50.834;3.160;2022-07-29T14:08:24;26.10;43.50
34249;DHT22;20508;50.834;3.160;2022-07-29T14:10:54;26.10;43.40
34249;DHT22;20508;50.834;3.160;2022-07-29T14:13:26;26.10;43.60
34249;DHT22;20508;50.834;3.160;2022-07-29T14:16:02;26.20;43.70
34249;DHT22;20508;50.834;3.160;2022-07-29T14:18:41;26.20;43.80
34249;DHT22;20508;50.834;3.160;2022-07-29T14:21:15;26.20;43.90
34249;DHT22;20508;50.834;3.160;2022-07-29T14:23:49;26.10;44.00
34249;DHT22;20508;50.834;3.160;2022-07-29T14:29:24;26.10;44.10
34249;DHT22;20508;50.834;3.160;2022-07-29T14:31:53;26.10;44.30
34249;DHT22;20508;50.834;3.160;2022-07-29T14:34:28;26.10;44.40
34249;DHT22;20508;50.834;3.160;2022-07-29T14:37:05;26.00;44.40
34249;DHT22;20508;50.834;3.160;2022-07-29T14:39:34;26.00;44.70
34249;DHT22;20508;50.834;3.160;2022-07-29T14:42:11;25.90;44.60
34249;DHT22;20508;50.834;3.160;2022-07-29T14:44:39;26.00;44.90
34249;DHT22;20508;50.834;3.160;2022-07-29T14:47:27;25.90;44.30
34249;DHT22;20508;50.834;3.160;2022-07-29T14:50:17;26.10;44.40
34249;DHT22;20508;50.834;3.160;2022-07-29T14:52:44;26.10;44.20
34249;DHT22;20508;50.834;3.160;2022-07-29T14:55:24;26.10;43.40
34249;DHT22;20508;50.834;3.160;2022-07-29T14:57:55;26.20;43.40
34249;DHT22;20508;50.834;3.160;2022-07-29T15:00:27;26.30;43.50
34249;DHT22;20508;50.834;3.160;2022-07-29T15:03:03;26.30;43.30
34249;DHT22;20508;50.834;3.160;2022-07-29T15:05:31;26.30;43.50
34249;DHT22;20508;50.834;3.160;2022-07-29T15:08:00;26.30;43.50
34249;DHT22;20508;50.834;3.160;2022-07-29T15:10:36;26.30;43.60
34249;DHT22;20508;50.834;3.160;2022-07-29T15:13:09;26.30;43.50
34249;DHT22;20508;50.834;3.160;2022-07-29T15:15:59;26.30;43.70
34249;DHT22;20508;50.834;3.160;2022-07-29T15:18:38;26.30;43.60
34249;DHT22;20508;50.834;3.160;2022-07-29T15:21:04;26.30;43.40
34249;DHT22;20508;50.834;3.160;2022-07-29T15:23:59;26.20;43.70
34249;DHT22;20508;50.834;3.160;2022-07-29T15:26:36;26.20;43.80
34249;DHT22;20508;50.834;3.160;2022-07-29T15:29:13;26.20;43.80
34249;DHT22;20508;50.834;3.160;2022-07-29T15:31:59;26.20;43.70
34249;DHT22;20508;50.834;3.160;2022-07-29T15:34:59;26.30;44.00
34249;DHT22;20508;50.834;3.160;2022-07-29T15:37:40;26.20;43.80
34249;DHT22;20508;50.834;3.160;2022-07-29T15:40:24;26.20;43.90
34249;DHT22;20508;50.834;3.160;2022-07-29T15:42:55;26.20;44.00
34249;DHT22;20508;50.834;3.160;2022-07-29T15:45:44;26.20;44.00
34249;DHT22;20508;50.834;3.160;2022-07-29T15:48:30;26.20;44.20
34249;DHT22;20508;50.834;3.160;2022-07-29T15:51:07;26.10;44.10
34249;DHT22;20508;50.834;3.160;2022-07-29T15:53:42;26.10;44.00
34249;DHT22;20508;50.834;3.160;2022-07-29T15:56:10;26.10;44.10
34249;DHT22;20508;50.834;3.160;2022-07-29T15:58:37;26.10;44.30
34249;DHT22;20508;50.834;3.160;2022-07-29T16:01:08;26.00;44.40
34249;DHT22;20508;50.834;3.160;2022-07-29T16:03:49;26.10;44.60
34249;DHT22;20508;50.834;3.160;2022-07-29T16:06:27;26.10;44.80
34249;DHT22;20508;50.834;3.160;2022-07-29T16:09:17;26.10;44.90
34249;DHT22;20508;50.834;3.160;2022-07-29T16:11:56;26.00;43.70
34249;DHT22;20508;50.834;3.160;2022-07-29T16:14:37;26.00;43.60
34249;DHT22;20508;50.834;3.160;2022-07-29T16:17:16;26.00;43.20
34249;DHT22;20508;50.834;3.160;2022-07-29T16:19:56;26.00;43.00
34249;DHT22;20508;50.834;3.160;2022-07-29T16:22:25;26.10;42.40
34249;DHT22;20508;50.834;3.160;2022-07-29T16:25:08;26.10;42.70
34249;DHT22;20508;50.834;3.160;2022-07-29T16:27:54;26.20;42.50
34249;DHT22;20508;50.834;3.160;2022-07-29T16:30:45;26.10;42.20
34249;DHT22;20508;50.834;3.160;2022-07-29T16:33:41;26.10;42.10
34249;DHT22;20508;50.834;3.160;2022-07-29T16:36:08;26.10;41.90
34249;DHT22;20508;50.834;3.160;2022-07-29T16:38:57;26.00;42.10
34249;DHT22;20508;50.834;3.160;2022-07-29T16:41:33;26.00;42.10
34249;DHT22;20508;50.834;3.160;2022-07-29T16:44:03;26.00;42.30
34249;DHT22;20508;50.834;3.160;2022-07-29T16:46:34;26.10;42.50
34249;DHT22;20508;50.834;3.160;2022-07-29T16:49:22;26.00;42.60
34249;DHT22;20508;50.834;3.160;2022-07-29T16:51:48;26.00;42.70
34249;DHT22;20508;50.834;3.160;2022-07-29T16:54:39;26.00;43.10
34249;DHT22;20508;50.834;3.160;2022-07-29T16:57:16;26.00;43.10
34249;DHT22;20508;50.834;3.160;2022-07-29T16:59:49;25.90;43.20
34249;DHT22;20508;50.834;3.160;2022-07-29T17:02:21;26.00;43.40
34249;DHT22;20508;50.834;3.160;2022-07-29T17:04:50;26.00;43.40
34249;DHT22;20508;50.834;3.160;2022-07-29T17:07:28;26.00;43.60
34249;DHT22;20508;50.834;3.160;2022-07-29T17:09:57;26.00;43.60
34249;DHT22;20508;50.834;3.160;2022-07-29T17:12:26;26.10;43.40
34249;DHT22;20508;50.834;3.160;2022-07-29T17:15:27;26.10;43.30
34249;DHT22;20508;50.834;3.160;2022-07-29T17:18:02;26.10;43.50
34249;DHT22;20508;50.834;3.160;2022-07-29T17:20:35;26.00;43.60
34249;DHT22;20508;50.834;3.160;2022-07-29T17:23:36;26.10;43.70
34249;DHT22;20508;50.834;3.160;2022-07-29T17:26:05;26.10;43.60
34249;DHT22;20508;50.834;3.160;2022-07-29T17:28:39;26.10;43.80
34249;DHT22;20508;50.834;3.160;2022-07-29T17:31:36;26.10;43.60
34249;DHT22;20508;50.834;3.160;2022-07-29T17:34:28;26.10;43.60
34249;DHT22;20508;50.834;3.160;2022-07-29T17:37:17;26.10;43.50
34249;DHT22;20508;50.834;3.160;2022-07-29T17:39:54;26.10;43.40
34249;DHT22;20508;50.834;3.160;2022-07-29T17:42:20;26.10;43.50
34249;DHT22;20508;50.834;3.160;2022-07-29T17:44:51;26.10;43.20
34249;DHT22;20508;50.834;3.160;2022-07-29T17:47:28;26.20;43.20
34249;DHT22;20508;50.834;3.160;2022-07-29T17:49:56;26.20;43.10
34249;DHT22;20508;50.834;3.160;2022-07-29T17:52:52;26.20;42.70
34249;DHT22;20508;50.834;3.160;2022-07-29T17:55:29;26.30;42.60
34249;DHT22;20508;50.834;3.160;2022-07-29T17:58:04;26.30;42.60
34249;DHT22;20508;50.834;3.160;2022-07-29T18:00:43;26.20;42.10
34249;DHT22;20508;50.834;3.160;2022-07-29T18:03:18;26.20;42.20
34249;DHT22;20508;50.834;3.160;2022-07-29T18:05:54;26.20;42.30
34249;DHT22;20508;50.834;3.160;2022-07-29T18:08:26;26.20;42.40
34249;DHT22;20508;50.834;3.160;2022-07-29T18:10:52;26.20;42.70
34249;DHT22;20508;50.834;3.160;2022-07-29T18:13:31;26.20;42.30
34249;DHT22;20508;50.834;3.160;2022-07-29T18:15:57;26.20;42.40
34249;DHT22;20508;50.834;3.160;2022-07-29T18:18:42;26.30;42.50
34249;DHT22;20508;50.834;3.160;2022-07-29T18:21:20;26.30;42.40
34249;DHT22;20508;50.834;3.160;2022-07-29T18:24:01;26.20;42.40
34249;DHT22;20508;50.834;3.160;2022-07-29T18:26:38;26.20;42.30
34249;DHT22;20508;50.834;3.160;2022-07-29T18:32:18;26.20;42.40
34249;DHT22;20508;50.834;3.160;2022-07-29T18:34:57;26.10;42.70
34249;DHT22;20508;50.834;3.160;2022-07-29T18:37:27;26.00;42.80
34249;DHT22;20508;50.834;3.160;2022-07-29T18:39:59;26.10;42.80
34249;DHT22;20508;50.834;3.160;2022-07-29T18:42:38;26.10;42.70